sensor_id;sensor_type;location;lat;lon;timestamp;P1;durP1;ratioP1;P2;durP2;ratioP2
7899;SDS011;3995;50.856;4.404;2022-08-19T00:00:28;15.43;;;13.20;;
7899;SDS011;3995;50.856;4.404;2022-08-19T00:02:56;17.60;;;14.13;;
7899;SDS011;3995;50.856;4.404;2022-08-19T00:05:24;19.47;;;15.30;;
7899;SDS011;3995;50.856;4.404;2022-08-19T00:07:51;17.93;;;15.77;;
7899;SDS011;3995;50.856;4.404;2022-08-19T00:10:19;17.33;;;15.63;;
7899;SDS011;3995;50.856;4.404;2022-08-19T00:12:47;17.20;;;15.40;;
7899;SDS011;3995;50.856;4.404;2022-08-19T00:15:15;18.80;;;16.77;;
7899;SDS011;3995;50.856;4.404;2022-08-19T00:17:44;19.00;;;17.10;;
7899;SDS011;3995;50.856;4.404;2022-08-19T00:20:14;21.20;;;18.37;;
7899;SDS011;3995;50.856;4.404;2022-08-19T00:22:44;19.47;;;17.47;;
7899;SDS011;3995;50.856;4.404;2022-08-19T00:25:12;24.10;;;20.90;;
7899;SDS011;3995;50.856;4.404;2022-08-19T00:27:39;31.00;;;24.67;;
7899;SDS011;3995;50.856;4.404;2022-08-19T00:30:07;27.70;;;24.70;;
7899;SDS011;3995;50.856;4.404;2022-08-19T00:32:35;28.20;;;24.60;;
7899;SDS011;3995;50.856;4.404;2022-08-19T00:35:04;29.13;;;25.30;;
7899;SDS011;3995;50.856;4.404;2022-08-19T00:37:33;35.37;;;27.70;;
7899;SDS011;3995;50.856;4.404;2022-08-19T00:40:00;37.63;;;29.53;;
7899;SDS011;3995;50.856;4.404;2022-08-19T00:42:28;32.87;;;27.80;;
7899;SDS011;3995;50.856;4.404;2022-08-19T00:44:55;31.67;;;27.43;;
7899;SDS011;3995;50.856;4.404;2022-08-19T00:47:23;32.80;;;28.30;;
7899;SDS011;3995;50.856;4.404;2022-08-19T00:49:53;37.40;;;31.80;;
7899;SDS011;3995;50.856;4.404;2022-08-19T00:52:24;40.30;;;31.70;;
7899;SDS011;3995;50.856;4.404;2022-08-19T00:54:55;37.77;;;33.27;;
7899;SDS011;3995;50.856;4.404;2022-08-19T00:57:25;35.60;;;30.07;;
7899;SDS011;3995;50.856;4.404;2022-08-19T00:59:56;41.60;;;32.13;;
7899;SDS011;3995;50.856;4.404;2022-08-19T01:02:25;38.13;;;33.20;;
7899;SDS011;3995;50.856;4.404;2022-08-19T01:04:53;40.17;;;32.87;;
7899;SDS011;3995;50.856;4.404;2022-08-19T01:07:21;35.50;;;30.30;;
7899;SDS011;3995;50.856;4.404;2022-08-19T01:09:49;35.90;;;28.80;;
7899;SDS011;3995;50.856;4.404;2022-08-19T01:12:17;33.10;;;27.97;;
7899;SDS011;3995;50.856;4.404;2022-08-19T01:14:45;32.63;;;26.77;;
7899;SDS011;3995;50.856;4.404;2022-08-19T01:17:13;34.97;;;28.53;;
7899;SDS011;3995;50.856;4.404;2022-08-19T01:19:42;34.40;;;29.47;;
7899;SDS011;3995;50.856;4.404;2022-08-19T01:22:12;37.10;;;28.97;;
7899;SDS011;3995;50.856;4.404;2022-08-19T01:24:46;35.57;;;27.43;;
7899;SDS011;3995;50.856;4.404;2022-08-19T01:27:14;30.20;;;26.30;;
7899;SDS011;3995;50.856;4.404;2022-08-19T01:29:42;30.00;;;25.80;;
7899;SDS011;3995;50.856;4.404;2022-08-19T01:32:11;26.53;;;23.03;;
7899;SDS011;3995;50.856;4.404;2022-08-19T01:34:39;30.63;;;21.57;;
7899;SDS011;3995;50.856;4.404;2022-08-19T01:37:07;25.67;;;22.87;;
7899;SDS011;3995;50.856;4.404;2022-08-19T01:39:36;33.13;;;21.70;;
7899;SDS011;3995;50.856;4.404;2022-08-19T01:42:06;27.07;;;22.13;;
7899;SDS011;3995;50.856;4.404;2022-08-19T01:44:36;24.87;;;22.17;;
7899;SDS011;3995;50.856;4.404;2022-08-19T01:47:05;25.67;;;21.73;;
7899;SDS011;3995;50.856;4.404;2022-08-19T01:49:33;27.43;;;21.57;;
7899;SDS011;3995;50.856;4.404;2022-08-19T01:52:00;24.73;;;20.93;;
7899;SDS011;3995;50.856;4.404;2022-08-19T01:54:27;30.03;;;21.40;;
7899;SDS011;3995;50.856;4.404;2022-08-19T01:56:56;19.17;;;17.13;;
7899;SDS011;3995;50.856;4.404;2022-08-19T01:59:29;18.50;;;16.17;;
7899;SDS011;3995;50.856;4.404;2022-08-19T02:01:58;18.17;;;16.17;;
7899;SDS011;3995;50.856;4.404;2022-08-19T02:04:25;20.07;;;17.97;;
7899;SDS011;3995;50.856;4.404;2022-08-19T02:06:52;25.60;;;17.97;;
7899;SDS011;3995;50.856;4.404;2022-08-19T02:09:19;23.43;;;19.00;;
7899;SDS011;3995;50.856;4.404;2022-08-19T02:11:46;23.67;;;20.67;;
7899;SDS011;3995;50.856;4.404;2022-08-19T02:14:13;22.30;;;19.10;;
7899;SDS011;3995;50.856;4.404;2022-08-19T02:16:42;20.00;;;17.90;;
7899;SDS011;3995;50.856;4.404;2022-08-19T02:19:09;20.00;;;17.43;;
7899;SDS011;3995;50.856;4.404;2022-08-19T02:21:36;15.40;;;13.80;;
7899;SDS011;3995;50.856;4.404;2022-08-19T02:24:03;18.20;;;14.73;;
7899;SDS011;3995;50.856;4.404;2022-08-19T02:26:31;15.07;;;13.50;;
7899;SDS011;3995;50.856;4.404;2022-08-19T02:28:59;15.87;;;13.63;;
7899;SDS011;3995;50.856;4.404;2022-08-19T02:31:27;18.50;;;15.37;;
7899;SDS011;3995;50.856;4.404;2022-08-19T02:33:55;20.03;;;16.13;;
7899;SDS011;3995;50.856;4.404;2022-08-19T02:36:23;21.23;;;17.67;;
7899;SDS011;3995;50.856;4.404;2022-08-19T02:38:51;19.10;;;16.90;;
7899;SDS011;3995;50.856;4.404;2022-08-19T02:41:19;24.33;;;17.43;;
7899;SDS011;3995;50.856;4.404;2022-08-19T02:43:48;19.50;;;17.40;;
7899;SDS011;3995;50.856;4.404;2022-08-19T02:46:16;21.63;;;17.33;;
7899;SDS011;3995;50.856;4.404;2022-08-19T02:48:46;19.67;;;16.37;;
7899;SDS011;3995;50.856;4.404;2022-08-19T02:51:19;18.30;;;15.00;;
7899;SDS011;3995;50.856;4.404;2022-08-19T02:53:47;17.40;;;14.90;;
7899;SDS011;3995;50.856;4.404;2022-08-19T02:56:15;17.80;;;13.37;;
7899;SDS011;3995;50.856;4.404;2022-08-19T02:58:43;18.67;;;15.50;;
7899;SDS011;3995;50.856;4.404;2022-08-19T03:01:10;16.20;;;14.13;;
7899;SDS011;3995;50.856;4.404;2022-08-19T03:03:37;18.20;;;14.90;;
7899;SDS011;3995;50.856;4.404;2022-08-19T03:06:06;22.00;;;15.00;;
7899;SDS011;3995;50.856;4.404;2022-08-19T03:08:36;16.30;;;14.60;;
7899;SDS011;3995;50.856;4.404;2022-08-19T03:11:04;18.03;;;14.17;;
7899;SDS011;3995;50.856;4.404;2022-08-19T03:13:31;18.77;;;14.87;;
7899;SDS011;3995;50.856;4.404;2022-08-19T03:15:58;16.90;;;13.20;;
7899;SDS011;3995;50.856;4.404;2022-08-19T03:18:25;17.83;;;13.13;;
7899;SDS011;3995;50.856;4.404;2022-08-19T03:20:53;18.47;;;14.43;;
7899;SDS011;3995;50.856;4.404;2022-08-19T03:23:21;19.10;;;14.10;;
7899;SDS011;3995;50.856;4.404;2022-08-19T03:25:50;19.37;;;15.73;;
7899;SDS011;3995;50.856;4.404;2022-08-19T03:28:19;21.13;;;15.23;;
7899;SDS011;3995;50.856;4.404;2022-08-19T03:30:56;27.53;;;15.30;;
7899;SDS011;3995;50.856;4.404;2022-08-19T03:33:25;18.40;;;15.10;;
7899;SDS011;3995;50.856;4.404;2022-08-19T03:36:00;26.63;;;16.33;;
7899;SDS011;3995;50.856;4.404;2022-08-19T03:38:33;17.77;;;14.57;;
7899;SDS011;3995;50.856;4.404;2022-08-19T03:41:07;18.17;;;13.67;;
7899;SDS011;3995;50.856;4.404;2022-08-19T03:43:36;17.93;;;13.40;;
7899;SDS011;3995;50.856;4.404;2022-08-19T03:46:06;14.50;;;12.13;;
7899;SDS011;3995;50.856;4.404;2022-08-19T03:48:36;21.23;;;13.80;;
7899;SDS011;3995;50.856;4.404;2022-08-19T03:51:04;15.63;;;12.77;;
7899;SDS011;3995;50.856;4.404;2022-08-19T03:53:32;16.30;;;12.83;;
7899;SDS011;3995;50.856;4.404;2022-08-19T03:56:00;19.80;;;13.40;;
7899;SDS011;3995;50.856;4.404;2022-08-19T03:58:29;19.27;;;13.70;;
7899;SDS011;3995;50.856;4.404;2022-08-19T04:00:56;21.03;;;13.93;;
7899;SDS011;3995;50.856;4.404;2022-08-19T04:03:24;16.13;;;13.07;;
7899;SDS011;3995;50.856;4.404;2022-08-19T04:05:52;19.57;;;15.00;;
7899;SDS011;3995;50.856;4.404;2022-08-19T04:08:19;17.10;;;14.60;;
7899;SDS011;3995;50.856;4.404;2022-08-19T04:10:47;20.40;;;14.37;;
7899;SDS011;3995;50.856;4.404;2022-08-19T04:13:15;18.00;;;14.70;;
7899;SDS011;3995;50.856;4.404;2022-08-19T04:15:45;18.33;;;15.10;;
7899;SDS011;3995;50.856;4.404;2022-08-19T04:18:13;22.73;;;15.37;;
7899;SDS011;3995;50.856;4.404;2022-08-19T04:20:41;17.77;;;15.00;;
7899;SDS011;3995;50.856;4.404;2022-08-19T04:23:09;16.23;;;14.47;;
7899;SDS011;3995;50.856;4.404;2022-08-19T04:25:37;18.17;;;13.30;;
7899;SDS011;3995;50.856;4.404;2022-08-19T04:28:06;17.37;;;13.10;;
7899;SDS011;3995;50.856;4.404;2022-08-19T04:30:38;20.50;;;13.57;;
7899;SDS011;3995;50.856;4.404;2022-08-19T04:33:08;20.07;;;14.63;;
7899;SDS011;3995;50.856;4.404;2022-08-19T04:35:37;21.33;;;14.60;;
7899;SDS011;3995;50.856;4.404;2022-08-19T04:38:05;17.53;;;11.70;;
7899;SDS011;3995;50.856;4.404;2022-08-19T04:40:33;20.63;;;12.70;;
7899;SDS011;3995;50.856;4.404;2022-08-19T04:43:22;15.60;;;11.10;;
7899;SDS011;3995;50.856;4.404;2022-08-19T04:45:49;14.60;;;10.50;;
7899;SDS011;3995;50.856;4.404;2022-08-19T04:48:18;15.17;;;10.40;;
7899;SDS011;3995;50.856;4.404;2022-08-19T04:50:50;12.17;;;9.53;;
7899;SDS011;3995;50.856;4.404;2022-08-19T04:53:22;16.03;;;10.43;;
7899;SDS011;3995;50.856;4.404;2022-08-19T04:55:50;13.60;;;9.73;;
7899;SDS011;3995;50.856;4.404;2022-08-19T04:58:17;15.10;;;9.10;;
7899;SDS011;3995;50.856;4.404;2022-08-19T05:00:44;12.77;;;8.50;;
7899;SDS011;3995;50.856;4.404;2022-08-19T05:03:11;14.53;;;10.07;;
7899;SDS011;3995;50.856;4.404;2022-08-19T05:05:43;12.10;;;9.23;;
7899;SDS011;3995;50.856;4.404;2022-08-19T05:08:13;11.40;;;8.87;;
7899;SDS011;3995;50.856;4.404;2022-08-19T05:10:44;12.10;;;8.63;;
7899;SDS011;3995;50.856;4.404;2022-08-19T05:13:13;16.90;;;9.10;;
7899;SDS011;3995;50.856;4.404;2022-08-19T05:15:41;13.57;;;8.07;;
7899;SDS011;3995;50.856;4.404;2022-08-19T05:18:09;12.87;;;8.27;;
7899;SDS011;3995;50.856;4.404;2022-08-19T05:20:55;13.70;;;7.80;;
7899;SDS011;3995;50.856;4.404;2022-08-19T05:23:40;9.83;;;7.30;;
7899;SDS011;3995;50.856;4.404;2022-08-19T05:26:09;13.53;;;8.50;;
7899;SDS011;3995;50.856;4.404;2022-08-19T05:28:37;12.23;;;8.23;;
7899;SDS011;3995;50.856;4.404;2022-08-19T05:31:04;21.67;;;9.27;;
7899;SDS011;3995;50.856;4.404;2022-08-19T05:33:32;14.30;;;7.40;;
7899;SDS011;3995;50.856;4.404;2022-08-19T05:36:02;14.83;;;7.57;;
7899;SDS011;3995;50.856;4.404;2022-08-19T05:38:30;12.00;;;7.50;;
7899;SDS011;3995;50.856;4.404;2022-08-19T05:40:58;16.10;;;10.43;;
7899;SDS011;3995;50.856;4.404;2022-08-19T05:43:25;17.43;;;9.23;;
7899;SDS011;3995;50.856;4.404;2022-08-19T05:45:52;17.13;;;9.00;;
7899;SDS011;3995;50.856;4.404;2022-08-19T05:48:20;14.10;;;10.03;;
7899;SDS011;3995;50.856;4.404;2022-08-19T05:50:47;12.13;;;9.57;;
7899;SDS011;3995;50.856;4.404;2022-08-19T05:53:16;20.30;;;10.17;;
7899;SDS011;3995;50.856;4.404;2022-08-19T05:55:44;13.00;;;8.60;;
7899;SDS011;3995;50.856;4.404;2022-08-19T05:58:11;14.90;;;10.50;;
7899;SDS011;3995;50.856;4.404;2022-08-19T06:00:38;13.27;;;10.30;;
7899;SDS011;3995;50.856;4.404;2022-08-19T06:03:06;19.53;;;9.83;;
7899;SDS011;3995;50.856;4.404;2022-08-19T06:05:33;17.27;;;9.90;;
7899;SDS011;3995;50.856;4.404;2022-08-19T06:08:00;12.07;;;9.30;;
7899;SDS011;3995;50.856;4.404;2022-08-19T06:10:29;15.03;;;8.80;;
7899;SDS011;3995;50.856;4.404;2022-08-19T06:12:56;12.80;;;8.20;;
7899;SDS011;3995;50.856;4.404;2022-08-19T06:15:23;17.37;;;9.17;;
7899;SDS011;3995;50.856;4.404;2022-08-19T06:17:51;8.60;;;7.63;;
7899;SDS011;3995;50.856;4.404;2022-08-19T06:20:18;12.30;;;7.00;;
7899;SDS011;3995;50.856;4.404;2022-08-19T06:22:48;15.37;;;7.87;;
7899;SDS011;3995;50.856;4.404;2022-08-19T06:25:16;11.23;;;7.30;;
7899;SDS011;3995;50.856;4.404;2022-08-19T06:27:45;18.13;;;6.50;;
7899;SDS011;3995;50.856;4.404;2022-08-19T06:30:13;17.73;;;6.83;;
7899;SDS011;3995;50.856;4.404;2022-08-19T06:32:40;12.20;;;6.50;;
7899;SDS011;3995;50.856;4.404;2022-08-19T06:35:07;8.43;;;5.53;;
7899;SDS011;3995;50.856;4.404;2022-08-19T06:37:36;12.70;;;6.70;;
7899;SDS011;3995;50.856;4.404;2022-08-19T06:40:04;19.47;;;6.33;;
7899;SDS011;3995;50.856;4.404;2022-08-19T06:42:33;13.67;;;6.23;;
7899;SDS011;3995;50.856;4.404;2022-08-19T06:45:02;14.00;;;5.73;;
7899;SDS011;3995;50.856;4.404;2022-08-19T06:47:31;16.70;;;5.90;;
7899;SDS011;3995;50.856;4.404;2022-08-19T06:49:59;12.03;;;6.20;;
7899;SDS011;3995;50.856;4.404;2022-08-19T06:52:27;10.57;;;6.10;;
7899;SDS011;3995;50.856;4.404;2022-08-19T06:54:55;9.60;;;5.67;;
7899;SDS011;3995;50.856;4.404;2022-08-19T06:57:23;18.20;;;6.40;;
7899;SDS011;3995;50.856;4.404;2022-08-19T06:59:50;11.67;;;6.03;;
7899;SDS011;3995;50.856;4.404;2022-08-19T07:02:19;8.23;;;5.10;;
7899;SDS011;3995;50.856;4.404;2022-08-19T07:04:51;9.73;;;5.43;;
7899;SDS011;3995;50.856;4.404;2022-08-19T07:07:19;16.60;;;6.30;;
7899;SDS011;3995;50.856;4.404;2022-08-19T07:09:47;10.43;;;5.77;;
7899;SDS011;3995;50.856;4.404;2022-08-19T07:12:15;15.27;;;5.70;;
7899;SDS011;3995;50.856;4.404;2022-08-19T07:14:42;9.20;;;6.50;;
7899;SDS011;3995;50.856;4.404;2022-08-19T07:17:11;10.33;;;5.73;;
7899;SDS011;3995;50.856;4.404;2022-08-19T07:19:40;11.03;;;5.73;;
7899;SDS011;3995;50.856;4.404;2022-08-19T07:22:08;8.67;;;5.90;;
7899;SDS011;3995;50.856;4.404;2022-08-19T07:24:36;11.70;;;6.07;;
7899;SDS011;3995;50.856;4.404;2022-08-19T07:27:04;9.30;;;5.90;;
7899;SDS011;3995;50.856;4.404;2022-08-19T07:29:33;18.10;;;6.53;;
7899;SDS011;3995;50.856;4.404;2022-08-19T07:32:02;9.80;;;5.80;;
7899;SDS011;3995;50.856;4.404;2022-08-19T07:34:30;13.23;;;5.77;;
7899;SDS011;3995;50.856;4.404;2022-08-19T07:37:03;10.20;;;5.50;;
7899;SDS011;3995;50.856;4.404;2022-08-19T07:39:33;8.00;;;5.47;;
7899;SDS011;3995;50.856;4.404;2022-08-19T07:42:02;7.23;;;4.87;;
7899;SDS011;3995;50.856;4.404;2022-08-19T07:44:32;11.93;;;5.03;;
7899;SDS011;3995;50.856;4.404;2022-08-19T07:47:00;8.93;;;4.50;;
7899;SDS011;3995;50.856;4.404;2022-08-19T07:49:27;8.30;;;4.80;;
7899;SDS011;3995;50.856;4.404;2022-08-19T07:51:55;9.90;;;4.93;;
7899;SDS011;3995;50.856;4.404;2022-08-19T07:54:28;8.83;;;5.43;;
7899;SDS011;3995;50.856;4.404;2022-08-19T07:56:59;7.70;;;4.40;;
7899;SDS011;3995;50.856;4.404;2022-08-19T07:59:26;8.73;;;4.20;;
7899;SDS011;3995;50.856;4.404;2022-08-19T08:01:54;9.37;;;4.93;;
7899;SDS011;3995;50.856;4.404;2022-08-19T08:04:22;7.77;;;5.33;;
7899;SDS011;3995;50.856;4.404;2022-08-19T08:07:07;10.33;;;5.00;;
7899;SDS011;3995;50.856;4.404;2022-08-19T08:09:53;7.60;;;4.43;;
7899;SDS011;3995;50.856;4.404;2022-08-19T08:12:21;8.40;;;4.93;;
7899;SDS011;3995;50.856;4.404;2022-08-19T08:14:54;8.13;;;5.13;;
7899;SDS011;3995;50.856;4.404;2022-08-19T08:17:24;11.13;;;6.20;;
7899;SDS011;3995;50.856;4.404;2022-08-19T08:19:53;8.70;;;5.30;;
7899;SDS011;3995;50.856;4.404;2022-08-19T08:22:20;9.50;;;5.03;;
7899;SDS011;3995;50.856;4.404;2022-08-19T08:25:04;6.20;;;4.60;;
7899;SDS011;3995;50.856;4.404;2022-08-19T08:27:35;7.10;;;4.53;;
7899;SDS011;3995;50.856;4.404;2022-08-19T08:30:04;9.83;;;4.80;;
7899;SDS011;3995;50.856;4.404;2022-08-19T08:32:34;5.63;;;4.57;;
7899;SDS011;3995;50.856;4.404;2022-08-19T08:35:02;10.37;;;5.10;;
7899;SDS011;3995;50.856;4.404;2022-08-19T08:37:29;15.83;;;5.03;;
7899;SDS011;3995;50.856;4.404;2022-08-19T08:39:56;6.73;;;4.20;;
7899;SDS011;3995;50.856;4.404;2022-08-19T08:42:27;7.03;;;5.27;;
7899;SDS011;3995;50.856;4.404;2022-08-19T08:45:00;7.63;;;4.60;;
7899;SDS011;3995;50.856;4.404;2022-08-19T08:47:35;6.80;;;4.70;;
7899;SDS011;3995;50.856;4.404;2022-08-19T08:50:06;8.13;;;4.67;;
7899;SDS011;3995;50.856;4.404;2022-08-19T08:52:41;8.00;;;4.97;;
7899;SDS011;3995;50.856;4.404;2022-08-19T08:55:12;6.63;;;4.67;;
7899;SDS011;3995;50.856;4.404;2022-08-19T08:57:50;9.63;;;5.00;;
7899;SDS011;3995;50.856;4.404;2022-08-19T09:00:22;7.10;;;5.10;;
7899;SDS011;3995;50.856;4.404;2022-08-19T09:02:51;7.63;;;5.10;;
7899;SDS011;3995;50.856;4.404;2022-08-19T09:05:20;8.97;;;4.80;;
7899;SDS011;3995;50.856;4.404;2022-08-19T09:07:50;8.73;;;6.00;;
7899;SDS011;3995;50.856;4.404;2022-08-19T09:10:26;18.77;;;5.03;;
7899;SDS011;3995;50.856;4.404;2022-08-19T09:13:00;8.93;;;5.00;;
7899;SDS011;3995;50.856;4.404;2022-08-19T09:15:33;9.10;;;5.00;;
7899;SDS011;3995;50.856;4.404;2022-08-19T09:18:04;8.13;;;4.73;;
7899;SDS011;3995;50.856;4.404;2022-08-19T09:20:32;8.60;;;4.37;;
7899;SDS011;3995;50.856;4.404;2022-08-19T09:22:59;8.33;;;4.40;;
7899;SDS011;3995;50.856;4.404;2022-08-19T09:25:26;6.17;;;4.90;;
7899;SDS011;3995;50.856;4.404;2022-08-19T09:27:56;8.93;;;5.57;;
7899;SDS011;3995;50.856;4.404;2022-08-19T09:30:30;8.47;;;4.80;;
7899;SDS011;3995;50.856;4.404;2022-08-19T09:32:59;6.67;;;4.83;;
7899;SDS011;3995;50.856;4.404;2022-08-19T09:35:27;7.23;;;4.37;;
7899;SDS011;3995;50.856;4.404;2022-08-19T09:37:56;9.93;;;4.40;;
7899;SDS011;3995;50.856;4.404;2022-08-19T09:40:24;9.43;;;4.47;;
7899;SDS011;3995;50.856;4.404;2022-08-19T09:42:52;12.20;;;5.23;;
7899;SDS011;3995;50.856;4.404;2022-08-19T09:45:20;6.60;;;4.53;;
7899;SDS011;3995;50.856;4.404;2022-08-19T09:47:50;6.03;;;4.80;;
7899;SDS011;3995;50.856;4.404;2022-08-19T09:50:18;6.83;;;4.90;;
7899;SDS011;3995;50.856;4.404;2022-08-19T09:52:45;7.10;;;4.80;;
7899;SDS011;3995;50.856;4.404;2022-08-19T09:55:12;9.80;;;4.53;;
7899;SDS011;3995;50.856;4.404;2022-08-19T09:57:41;8.13;;;5.03;;
7899;SDS011;3995;50.856;4.404;2022-08-19T10:00:08;7.60;;;4.90;;
7899;SDS011;3995;50.856;4.404;2022-08-19T10:02:36;7.27;;;4.60;;
7899;SDS011;3995;50.856;4.404;2022-08-19T10:05:05;15.07;;;5.27;;
7899;SDS011;3995;50.856;4.404;2022-08-19T10:07:50;8.70;;;5.10;;
7899;SDS011;3995;50.856;4.404;2022-08-19T10:10:19;4.93;;;4.30;;
7899;SDS011;3995;50.856;4.404;2022-08-19T10:12:47;5.33;;;3.80;;
7899;SDS011;3995;50.856;4.404;2022-08-19T10:15:14;7.50;;;4.50;;
7899;SDS011;3995;50.856;4.404;2022-08-19T10:17:45;6.27;;;4.00;;
7899;SDS011;3995;50.856;4.404;2022-08-19T10:20:13;6.10;;;4.10;;
7899;SDS011;3995;50.856;4.404;2022-08-19T10:22:41;5.13;;;4.37;;
7899;SDS011;3995;50.856;4.404;2022-08-19T10:25:08;6.13;;;4.17;;
7899;SDS011;3995;50.856;4.404;2022-08-19T10:27:36;6.67;;;4.30;;
7899;SDS011;3995;50.856;4.404;2022-08-19T10:30:03;3.97;;;3.43;;
7899;SDS011;3995;50.856;4.404;2022-08-19T10:32:32;4.90;;;3.30;;
7899;SDS011;3995;50.856;4.404;2022-08-19T10:34:59;4.77;;;3.80;;
7899;SDS011;3995;50.856;4.404;2022-08-19T10:37:28;8.30;;;4.50;;
7899;SDS011;3995;50.856;4.404;2022-08-19T10:39:55;6.37;;;4.27;;
7899;SDS011;3995;50.856;4.404;2022-08-19T10:42:23;5.57;;;4.50;;
7899;SDS011;3995;50.856;4.404;2022-08-19T10:44:50;6.70;;;4.20;;
7899;SDS011;3995;50.856;4.404;2022-08-19T10:47:17;6.80;;;4.57;;
7899;SDS011;3995;50.856;4.404;2022-08-19T10:49:44;7.47;;;4.70;;
7899;SDS011;3995;50.856;4.404;2022-08-19T10:52:33;6.30;;;5.30;;
7899;SDS011;3995;50.856;4.404;2022-08-19T10:55:02;5.70;;;5.10;;
7899;SDS011;3995;50.856;4.404;2022-08-19T10:57:48;7.00;;;4.97;;
7899;SDS011;3995;50.856;4.404;2022-08-19T11:00:15;13.03;;;5.47;;
7899;SDS011;3995;50.856;4.404;2022-08-19T11:02:42;9.00;;;5.67;;
7899;SDS011;3995;50.856;4.404;2022-08-19T11:05:11;6.53;;;5.57;;
7899;SDS011;3995;50.856;4.404;2022-08-19T11:07:39;9.00;;;5.70;;
7899;SDS011;3995;50.856;4.404;2022-08-19T11:10:10;8.93;;;6.10;;
7899;SDS011;3995;50.856;4.404;2022-08-19T11:12:39;6.40;;;5.27;;
7899;SDS011;3995;50.856;4.404;2022-08-19T11:15:07;8.33;;;5.37;;
7899;SDS011;3995;50.856;4.404;2022-08-19T11:17:36;6.00;;;5.37;;
7899;SDS011;3995;50.856;4.404;2022-08-19T11:20:06;9.57;;;5.27;;
7899;SDS011;3995;50.856;4.404;2022-08-19T11:22:34;6.20;;;4.80;;
7899;SDS011;3995;50.856;4.404;2022-08-19T11:25:03;7.80;;;5.17;;
7899;SDS011;3995;50.856;4.404;2022-08-19T11:27:30;7.80;;;4.30;;
7899;SDS011;3995;50.856;4.404;2022-08-19T11:29:58;6.70;;;4.70;;
7899;SDS011;3995;50.856;4.404;2022-08-19T11:32:26;4.73;;;4.03;;
7899;SDS011;3995;50.856;4.404;2022-08-19T11:34:53;7.83;;;5.50;;
7899;SDS011;3995;50.856;4.404;2022-08-19T11:37:21;7.77;;;5.17;;
7899;SDS011;3995;50.856;4.404;2022-08-19T11:39:48;8.77;;;6.50;;
7899;SDS011;3995;50.856;4.404;2022-08-19T11:42:17;11.90;;;6.50;;
7899;SDS011;3995;50.856;4.404;2022-08-19T11:45:01;9.30;;;7.10;;
7899;SDS011;3995;50.856;4.404;2022-08-19T11:47:30;7.70;;;6.90;;
7899;SDS011;3995;50.856;4.404;2022-08-19T11:49:58;10.27;;;8.13;;
7899;SDS011;3995;50.856;4.404;2022-08-19T11:52:26;12.10;;;7.40;;
7899;SDS011;3995;50.856;4.404;2022-08-19T11:54:54;9.00;;;7.37;;
7899;SDS011;3995;50.856;4.404;2022-08-19T11:57:23;8.13;;;6.87;;
7899;SDS011;3995;50.856;4.404;2022-08-19T11:59:51;11.30;;;7.10;;
7899;SDS011;3995;50.856;4.404;2022-08-19T12:02:18;6.87;;;6.17;;
7899;SDS011;3995;50.856;4.404;2022-08-19T12:04:46;7.20;;;6.20;;
7899;SDS011;3995;50.856;4.404;2022-08-19T12:07:13;9.00;;;5.47;;
7899;SDS011;3995;50.856;4.404;2022-08-19T12:09:40;8.73;;;5.80;;
7899;SDS011;3995;50.856;4.404;2022-08-19T12:12:08;7.10;;;5.43;;
7899;SDS011;3995;50.856;4.404;2022-08-19T12:14:37;12.53;;;5.87;;
7899;SDS011;3995;50.856;4.404;2022-08-19T12:17:04;12.20;;;5.80;;
7899;SDS011;3995;50.856;4.404;2022-08-19T12:19:33;6.40;;;4.17;;
7899;SDS011;3995;50.856;4.404;2022-08-19T12:22:02;5.80;;;5.10;;
7899;SDS011;3995;50.856;4.404;2022-08-19T12:24:31;5.73;;;4.80;;
7899;SDS011;3995;50.856;4.404;2022-08-19T12:26:59;6.90;;;4.40;;
7899;SDS011;3995;50.856;4.404;2022-08-19T12:29:26;6.10;;;4.90;;
7899;SDS011;3995;50.856;4.404;2022-08-19T12:31:56;5.90;;;4.50;;
7899;SDS011;3995;50.856;4.404;2022-08-19T12:34:26;8.13;;;4.77;;
7899;SDS011;3995;50.856;4.404;2022-08-19T12:36:56;4.67;;;3.83;;
7899;SDS011;3995;50.856;4.404;2022-08-19T12:39:24;4.33;;;3.93;;
7899;SDS011;3995;50.856;4.404;2022-08-19T12:41:51;5.80;;;4.00;;
7899;SDS011;3995;50.856;4.404;2022-08-19T12:44:19;3.33;;;3.03;;
7899;SDS011;3995;50.856;4.404;2022-08-19T12:46:46;5.87;;;3.40;;
7899;SDS011;3995;50.856;4.404;2022-08-19T12:49:16;9.57;;;3.73;;
7899;SDS011;3995;50.856;4.404;2022-08-19T12:51:43;5.70;;;3.70;;
7899;SDS011;3995;50.856;4.404;2022-08-19T12:54:11;6.93;;;3.30;;
7899;SDS011;3995;50.856;4.404;2022-08-19T12:56:39;3.90;;;3.50;;
7899;SDS011;3995;50.856;4.404;2022-08-19T12:59:08;4.30;;;2.30;;
7899;SDS011;3995;50.856;4.404;2022-08-19T13:01:36;3.13;;;2.33;;
7899;SDS011;3995;50.856;4.404;2022-08-19T13:04:04;4.03;;;2.43;;
7899;SDS011;3995;50.856;4.404;2022-08-19T13:06:33;2.80;;;2.10;;
7899;SDS011;3995;50.856;4.404;2022-08-19T13:09:00;5.10;;;2.77;;
7899;SDS011;3995;50.856;4.404;2022-08-19T13:11:27;3.83;;;2.23;;
7899;SDS011;3995;50.856;4.404;2022-08-19T13:13:57;8.20;;;2.53;;
7899;SDS011;3995;50.856;4.404;2022-08-19T13:16:25;3.77;;;2.77;;
7899;SDS011;3995;50.856;4.404;2022-08-19T13:18:53;2.20;;;1.90;;
7899;SDS011;3995;50.856;4.404;2022-08-19T13:21:22;3.77;;;2.40;;
7899;SDS011;3995;50.856;4.404;2022-08-19T13:23:53;3.23;;;2.17;;
7899;SDS011;3995;50.856;4.404;2022-08-19T13:26:21;3.17;;;2.40;;
7899;SDS011;3995;50.856;4.404;2022-08-19T13:28:49;3.80;;;2.70;;
7899;SDS011;3995;50.856;4.404;2022-08-19T13:31:34;12.20;;;2.87;;
7899;SDS011;3995;50.856;4.404;2022-08-19T13:34:25;8.20;;;2.33;;
7899;SDS011;3995;50.856;4.404;2022-08-19T13:36:54;2.30;;;2.00;;
7899;SDS011;3995;50.856;4.404;2022-08-19T13:39:23;2.93;;;1.70;;
7899;SDS011;3995;50.856;4.404;2022-08-19T13:41:51;2.90;;;2.10;;
7899;SDS011;3995;50.856;4.404;2022-08-19T13:44:18;3.47;;;2.50;;
7899;SDS011;3995;50.856;4.404;2022-08-19T13:46:46;3.47;;;2.30;;
7899;SDS011;3995;50.856;4.404;2022-08-19T13:49:18;4.77;;;2.17;;
7899;SDS011;3995;50.856;4.404;2022-08-19T13:51:45;7.60;;;2.60;;
7899;SDS011;3995;50.856;4.404;2022-08-19T13:54:12;4.47;;;1.80;;
7899;SDS011;3995;50.856;4.404;2022-08-19T13:56:42;3.80;;;2.03;;
7899;SDS011;3995;50.856;4.404;2022-08-19T13:59:10;2.60;;;2.00;;
7899;SDS011;3995;50.856;4.404;2022-08-19T14:01:38;3.90;;;1.80;;
7899;SDS011;3995;50.856;4.404;2022-08-19T14:04:06;3.57;;;2.40;;
7899;SDS011;3995;50.856;4.404;2022-08-19T14:06:34;4.47;;;2.67;;
7899;SDS011;3995;50.856;4.404;2022-08-19T14:09:02;5.53;;;2.27;;
7899;SDS011;3995;50.856;4.404;2022-08-19T14:11:32;5.00;;;2.70;;
7899;SDS011;3995;50.856;4.404;2022-08-19T14:14:01;3.37;;;2.33;;
7899;SDS011;3995;50.856;4.404;2022-08-19T14:16:28;3.87;;;2.20;;
7899;SDS011;3995;50.856;4.404;2022-08-19T14:18:56;5.73;;;1.93;;
7899;SDS011;3995;50.856;4.404;2022-08-19T14:21:23;3.80;;;2.10;;
7899;SDS011;3995;50.856;4.404;2022-08-19T14:23:51;3.37;;;2.20;;
7899;SDS011;3995;50.856;4.404;2022-08-19T14:26:19;2.27;;;1.87;;
7899;SDS011;3995;50.856;4.404;2022-08-19T14:28:49;4.40;;;2.10;;
7899;SDS011;3995;50.856;4.404;2022-08-19T14:31:18;7.30;;;2.27;;
7899;SDS011;3995;50.856;4.404;2022-08-19T14:33:48;2.83;;;1.60;;
7899;SDS011;3995;50.856;4.404;2022-08-19T14:36:15;5.10;;;1.90;;
7899;SDS011;3995;50.856;4.404;2022-08-19T14:38:43;3.73;;;1.80;;
7899;SDS011;3995;50.856;4.404;2022-08-19T14:41:12;2.47;;;2.00;;
7899;SDS011;3995;50.856;4.404;2022-08-19T14:43:42;3.30;;;1.83;;
7899;SDS011;3995;50.856;4.404;2022-08-19T14:46:12;3.60;;;1.90;;
7899;SDS011;3995;50.856;4.404;2022-08-19T14:48:41;3.70;;;1.53;;
7899;SDS011;3995;50.856;4.404;2022-08-19T14:51:09;3.60;;;1.33;;
7899;SDS011;3995;50.856;4.404;2022-08-19T14:53:37;4.10;;;1.67;;
7899;SDS011;3995;50.856;4.404;2022-08-19T14:56:07;2.27;;;1.53;;
7899;SDS011;3995;50.856;4.404;2022-08-19T14:58:34;2.37;;;1.67;;
7899;SDS011;3995;50.856;4.404;2022-08-19T15:01:02;3.50;;;1.20;;
7899;SDS011;3995;50.856;4.404;2022-08-19T15:03:30;1.60;;;1.30;;
7899;SDS011;3995;50.856;4.404;2022-08-19T15:05:59;2.00;;;1.40;;
7899;SDS011;3995;50.856;4.404;2022-08-19T15:08:28;2.10;;;1.23;;
7899;SDS011;3995;50.856;4.404;2022-08-19T15:10:57;1.73;;;1.10;;
7899;SDS011;3995;50.856;4.404;2022-08-19T15:13:25;1.87;;;1.40;;